Mississagi — CFG8050 — position and weather

sailwx.info

Track history (hours):
 
Tides and Currents Weather Stations Pressure Air Temp Water Temp Dewpoint Dewpoint Depression Visibility Wind Speed Wind Dir Waves Ship Positions

Mississagi

Last reported at 2014-Sep-17 14:34 UTC. Time now 2014-Sep-19 15:51 UTC.
Position N 46°11' W 083°32'.

Length 189 m; draft 7.2 m.

Type: Cargo ship. MMSI: 316004940.

Date/timePositionNaut miles runAvg speedWind from/ knotsBaromVisibWave heightAir tempDewpointWater temp
2014-Sep-17 14:34N 46°11' W 083°32'31 1.2
2014-Sep-16 12:33N 45°50' W 084°04'1111.1
2014-Sep-16 11:33N 45°51' W 084°20'1111.1
2014-Sep-16 10:33N 45°51' W 084°36'1110.8
2014-Sep-16 09:33N 45°50' W 084°51'1111.0
2014-Sep-16 08:33N 45°51' W 085°07'1111.0
2014-Sep-16 07:33N 45°53' W 085°22'1110.9
2014-Sep-16 06:33N 45°54' W 085°38'1010.2
2014-Sep-16 05:33N 45°57' W 085°52'2 1.5
2014-Sep-16 04:33N 45°58' W 085°52'0 0.0
2014-Sep-16 03:33N 45°58' W 085°52'0 0.0
2014-Sep-16 02:33N 45°58' W 085°52'0 0.0
2014-Sep-16 01:33N 45°58' W 085°52'0 0.0
2014-Sep-16 00:33N 45°58' W 085°52'0 0.0
2014-Sep-15 23:33N 45°58' W 085°52'0 0.0
2014-Sep-15 22:33N 45°58' W 085°52'0 0.4
2014-Sep-15 21:33N 45°58' W 085°53'1 0.5
2014-Sep-15 20:33N 45°57' W 085°53'1 0.6
2014-Sep-15 19:33N 45°57' W 085°53'1111.5
2014-Sep-15 18:33N 45°46' W 085°58'1212.2
2014-Sep-15 17:33N 45°34' W 086°04'1212.1
2014-Sep-15 16:33N 45°23' W 086°08'1312.5
2014-Sep-15 15:32N 45°10' W 086°12'  
2014-Sep-13 11:14N 45°09' W 086°17'811.5
2014-Sep-13 10:33N 45°16' W 086°14'1111.5
2014-Sep-13 09:34N 45°27' W 086°10'1111.4
2014-Sep-13 08:34N 45°38' W 086°05'1010.4
2014-Sep-13 07:34N 45°45' W 085°55'1111.1
2014-Sep-13 06:34N 45°51' W 085°41'1110.6
2014-Sep-13 05:34N 45°53' W 085°26'1111.1
2014-Sep-13 04:33N 45°52' W 085°10'1111.2
2014-Sep-13 03:34N 45°50' W 084°54'1111.1
2014-Sep-13 02:34N 45°47' W 084°39'1111.1
2014-Sep-13 01:33N 45°42' W 084°25'1110.6
2014-Sep-13 00:34N 45°39' W 084°10'  
2014-Sep-10 07:27N 45°38' W 083°29'1011.5
2014-Sep-10 06:33N 45°46' W 083°39'1111.1
2014-Sep-10 05:33N 45°54' W 083°50'1010.2
2014-Sep-10 04:33N 46°03' W 083°57'9 9.4
2014-Sep-10 03:33N 46°10' W 084°05'9 8.8
2014-Sep-10 02:30N 46°18' W 084°13'  
Track history (hours):
 
Tides and Currents Weather Stations Pressure Air Temp Water Temp Dewpoint Dewpoint Depression Visibility Wind Speed Wind Dir Waves Ship Positions

Mississagi

Last reported at 2014-Sep-17 14:34 UTC. Time now 2014-Sep-19 15:51 UTC.
Position N 46°11' W 083°32'.

Length 189 m; draft 7.2 m.

Type: Cargo ship. MMSI: 316004940.

Date/timePositionNaut miles runAvg speedWind from/ knotsBaromVisibWave heightAir tempDewpointWater temp
2014-Sep-17 14:34N 46°11' W 083°32'31 1.2
2014-Sep-16 12:33N 45°50' W 084°04'1111.1
2014-Sep-16 11:33N 45°51' W 084°20'1111.1
2014-Sep-16 10:33N 45°51' W 084°36'1110.8
2014-Sep-16 09:33N 45°50' W 084°51'1111.0
2014-Sep-16 08:33N 45°51' W 085°07'1111.0
2014-Sep-16 07:33N 45°53' W 085°22'1110.9
2014-Sep-16 06:33N 45°54' W 085°38'1010.2
2014-Sep-16 05:33N 45°57' W 085°52'2 1.5
2014-Sep-16 04:33N 45°58' W 085°52'0 0.0
2014-Sep-16 03:33N 45°58' W 085°52'0 0.0
2014-Sep-16 02:33N 45°58' W 085°52'0 0.0
2014-Sep-16 01:33N 45°58' W 085°52'0 0.0
2014-Sep-16 00:33N 45°58' W 085°52'0 0.0
2014-Sep-15 23:33N 45°58' W 085°52'0 0.0
2014-Sep-15 22:33N 45°58' W 085°52'0 0.4
2014-Sep-15 21:33N 45°58' W 085°53'1 0.5
2014-Sep-15 20:33N 45°57' W 085°53'1 0.6
2014-Sep-15 19:33N 45°57' W 085°53'1111.5
2014-Sep-15 18:33N 45°46' W 085°58'1212.2
2014-Sep-15 17:33N 45°34' W 086°04'1212.1
2014-Sep-15 16:33N 45°23' W 086°08'1312.5
2014-Sep-15 15:32N 45°10' W 086°12'  
2014-Sep-13 11:14N 45°09' W 086°17'811.5
2014-Sep-13 10:33N 45°16' W 086°14'1111.5
2014-Sep-13 09:34N 45°27' W 086°10'1111.4
2014-Sep-13 08:34N 45°38' W 086°05'1010.4
2014-Sep-13 07:34N 45°45' W 085°55'1111.1
2014-Sep-13 06:34N 45°51' W 085°41'1110.6
2014-Sep-13 05:34N 45°53' W 085°26'1111.1
2014-Sep-13 04:33N 45°52' W 085°10'1111.2
2014-Sep-13 03:34N 45°50' W 084°54'1111.1
2014-Sep-13 02:34N 45°47' W 084°39'1111.1
2014-Sep-13 01:33N 45°42' W 084°25'1110.6
2014-Sep-13 00:34N 45°39' W 084°10'  
2014-Sep-10 07:27N 45°38' W 083°29'1011.5
2014-Sep-10 06:33N 45°46' W 083°39'1111.1
2014-Sep-10 05:33N 45°54' W 083°50'1010.2
2014-Sep-10 04:33N 46°03' W 083°57'9 9.4
2014-Sep-10 03:33N 46°10' W 084°05'9 8.8
2014-Sep-10 02:30N 46°18' W 084°13'  

Dump ship's entire track history